Time,TemperatureF,DewpointF,PressureIn,WindDirection,WindDirectionDegrees,WindSpeedMPH,WindSpeedGustMPH,Humidity,HourlyPrecipIn,Conditions,Clouds,dailyrainin,SoftwareType,DateUTC
2013-01-11 00:02:00,35.0,27.0,-100.00,WNW,293,5.0,19.0,73,-99.99,,,-99.99,,2013-01-11 08:02:00,
2013-01-11 00:12:00,35.0,27.0,-100.00,NW,309,5.0,15.0,73,-99.99,,,-99.99,,2013-01-11 08:12:00,
2013-01-11 00:22:00,34.0,27.0,-100.00,SW,232,3.0,11.0,76,-99.99,,,-99.99,,2013-01-11 08:22:00,
2013-01-11 00:32:00,34.0,28.0,-100.00,WSW,244,5.0,14.0,77,-99.99,,,-99.99,,2013-01-11 08:32:00,
2013-01-11 00:42:00,34.0,28.0,-100.00,NNW,330,4.0,12.0,77,-99.99,,,-99.99,,2013-01-11 08:42:00,
2013-01-11 00:52:00,34.0,28.0,-100.00,NW,319,5.0,16.0,77,-99.99,,,-99.99,,2013-01-11 08:52:00,
2013-01-11 01:02:00,34.0,28.0,-100.00,NNW,338,4.0,20.0,77,-99.99,,,-99.99,,2013-01-11 09:02:00,
2013-01-11 01:12:00,34.0,28.0,-100.00,WNW,298,6.0,17.0,77,-99.99,,,-99.99,,2013-01-11 09:12:00,
2013-01-11 01:22:00,34.0,27.0,-100.00,NW,308,7.0,15.0,76,-99.99,,,-99.99,,2013-01-11 09:22:00,
2013-01-11 01:32:00,34.0,27.0,-100.00,West,261,4.0,15.0,76,-99.99,,,-99.99,,2013-01-11 09:32:00,
2013-01-11 01:42:00,33.0,26.0,-100.00,NW,322,5.0,13.0,76,-99.99,,,-99.99,,2013-01-11 09:42:00,
2013-01-11 01:52:00,33.0,25.0,-100.00,NW,306,7.0,19.0,72,-99.99,,,-99.99,,2013-01-11 09:52:00,
2013-01-11 02:02:00,33.0,23.0,-100.00,NW,313,8.0,18.0,67,-99.99,,,-99.99,,2013-01-11 10:02:00,
2013-01-11 02:12:00,33.0,23.0,-100.00,NW,307,8.0,20.0,65,-99.99,,,-99.99,,2013-01-11 10:12:00,
2013-01-11 02:22:00,33.0,22.0,-100.00,WNW,302,7.0,16.0,64,-99.99,,,-99.99,,2013-01-11 10:22:00,
2013-01-11 02:32:00,33.0,23.0,-100.00,WNW,292,7.0,14.0,65,-99.99,,,-99.99,,2013-01-11 10:32:00,
2013-01-11 02:42:00,33.0,23.0,-100.00,NW,311,6.0,16.0,67,-99.99,,,-99.99,,2013-01-11 10:42:00,
2013-01-11 02:52:00,32.0,22.0,-100.00,WNW,297,7.0,16.0,67,-99.99,,,-99.99,,2013-01-11 10:52:00,
2013-01-11 03:02:00,32.0,23.0,-100.00,WNW,301,7.0,15.0,68,-99.99,,,-99.99,,2013-01-11 11:02:00,
2013-01-11 03:12:00,32.0,23.0,-100.00,WNW,303,8.0,15.0,69,-99.99,,,-99.99,,2013-01-11 11:12:00,
2013-01-11 03:22:00,31.0,22.0,-100.00,NW,305,3.0,8.0,70,-99.99,,,-99.99,,2013-01-11 11:22:00,
2013-01-11 03:32:00,31.0,22.0,-100.00,NW,307,3.0,8.0,69,-99.99,,,-99.99,,2013-01-11 11:32:00,
2013-01-11 03:42:00,30.0,21.0,-100.00,NNW,333,3.0,9.0,69,-99.99,,,-99.99,,2013-01-11 11:42:00,
2013-01-11 03:52:00,30.0,21.0,-100.00,NNW,328,2.0,4.0,69,-99.99,,,-99.99,,2013-01-11 11:52:00,
2013-01-11 04:02:00,30.0,21.0,-100.00,NW,311,3.0,6.0,70,-99.99,,,-99.99,,2013-01-11 12:02:00,
2013-01-11 04:12:00,30.0,22.0,-100.00,WNW,300,2.0,5.0,71,-99.99,,,-99.99,,2013-01-11 12:12:00,
2013-01-11 04:22:00,30.0,22.0,-100.00,NNW,333,1.0,4.0,71,-99.99,,,-99.99,,2013-01-11 12:22:00,
2013-01-11 04:32:00,29.0,21.0,-100.00,NW,311,4.0,5.0,71,-99.99,,,-99.99,,2013-01-11 12:32:00,
2013-01-11 04:42:00,30.0,22.0,-100.00,WNW,295,2.0,4.0,71,-99.99,,,-99.99,,2013-01-11 12:42:00,
2013-01-11 04:52:00,27.0,20.0,-100.00,NNW,345,1.0,4.0,76,-99.99,,,-99.99,,2013-01-11 12:52:00,
2013-01-11 05:02:00,27.0,20.0,-100.00,NNW,345,1.0,4.0,76,-99.99,,,-99.99,,2013-01-11 13:02:00,
2013-01-11 05:12:00,29.0,22.0,-100.00,NW,305,2.0,3.0,74,-99.99,,,-99.99,,2013-01-11 13:12:00,
2013-01-11 05:22:00,29.0,21.0,-100.00,WNW,301,1.0,2.0,73,-99.99,,,-99.99,,2013-01-11 13:22:00,
2013-01-11 05:32:00,26.0,20.0,-100.00,SSW,208,1.0,1.0,78,-99.99,,,-99.99,,2013-01-11 13:32:00,
2013-01-11 05:42:00,26.0,21.0,-100.00,NNW,329,2.0,4.0,81,-99.99,,,-99.99,,2013-01-11 13:42:00,
2013-01-11 05:52:00,27.0,21.0,-100.00,NW,319,3.0,4.0,78,-99.99,,,-99.99,,2013-01-11 13:52:00,
2013-01-11 06:02:00,27.0,21.0,-100.00,West,266,1.0,2.0,77,-99.99,,,-99.99,,2013-01-11 14:02:00,
2013-01-11 06:12:00,24.0,20.0,-100.00,SSW,212,1.0,2.0,84,-99.99,,,-99.99,,2013-01-11 14:12:00,
2013-01-11 06:22:00,25.0,21.0,-100.00,NNW,331,2.0,4.0,85,-99.99,,,-99.99,,2013-01-11 14:22:00,
2013-01-11 06:33:00,27.0,22.0,-100.00,NW,317,3.0,5.0,80,-99.99,,,-99.99,,2013-01-11 14:33:00,
2013-01-11 06:42:00,26.0,20.0,-100.00,NW,323,2.0,4.0,79,-99.99,,,-99.99,,2013-01-11 14:42:00,
2013-01-11 06:53:00,23.0,19.0,-100.00,SSW,206,2.0,4.0,83,-99.99,,,-99.99,,2013-01-11 14:53:00,
2013-01-11 07:03:00,22.0,19.0,-100.00,SSW,204,2.0,3.0,88,-99.99,,,-99.99,,2013-01-11 15:03:00,
2013-01-11 07:12:00,21.0,18.0,-100.00,SSW,201,1.0,2.0,89,-99.99,,,-99.99,,2013-01-11 15:12:00,
2013-01-11 07:22:00,21.0,19.0,-100.00,South,179,2.0,4.0,90,-99.99,,,-99.99,,2013-01-11 15:22:00,
2013-01-11 07:32:00,20.0,18.0,-100.00,SW,214,2.0,4.0,91,-99.99,,,-99.99,,2013-01-11 15:32:00,
2013-01-11 07:42:00,20.0,18.0,-100.00,SSE,158,1.0,3.0,91,-99.99,,,-99.99,,2013-01-11 15:42:00,
2013-01-11 07:52:00,20.0,18.0,-100.00,NNE,26,1.0,1.0,91,-99.99,,,-99.99,,2013-01-11 15:52:00,
2013-01-11 08:02:00,20.0,18.0,-100.00,NNE,26,1.0,1.0,91,-99.99,,,-99.99,,2013-01-11 16:02:00,
2013-01-11 08:12:00,25.0,22.0,-100.00,South,181,1.0,1.0,88,-99.99,,,-99.99,,2013-01-11 16:12:00,
2013-01-11 08:22:00,25.0,21.0,-100.00,South,189,1.0,2.0,84,-99.99,,,-99.99,,2013-01-11 16:22:00,
2013-01-11 08:32:00,26.0,22.0,-100.00,SSE,168,1.0,1.0,84,-99.99,,,-99.99,,2013-01-11 16:32:00,
2013-01-11 08:42:00,30.0,24.0,-100.00,NE,35,1.0,1.0,78,-99.99,,,-99.99,,2013-01-11 16:42:00,
2013-01-11 08:52:00,32.0,24.0,-100.00,North,351,0.0,1.0,71,-99.99,,,-99.99,,2013-01-11 16:52:00,
2013-01-11 09:02:00,34.0,24.0,-100.00,SW,228,0.0,1.0,67,-99.99,,,-99.99,,2013-01-11 17:02:00,
2013-01-11 09:12:00,35.0,24.0,-100.00,SW,234,0.0,1.0,64,-99.99,,,-99.99,,2013-01-11 17:12:00,
2013-01-11 09:22:00,35.0,24.0,-100.00,WSW,244,1.0,2.0,65,-99.99,,,-99.99,,2013-01-11 17:22:00,
2013-01-11 09:33:00,35.0,24.0,-100.00,South,182,2.0,5.0,64,-99.99,,,-99.99,,2013-01-11 17:33:00,
2013-01-11 09:42:00,34.0,22.0,-100.00,South,189,3.0,6.0,60,-99.99,,,-99.99,,2013-01-11 17:42:00,
2013-01-11 09:53:00,35.0,21.0,-100.00,SW,222,3.0,7.0,56,-99.99,,,-99.99,,2013-01-11 17:53:00,
2013-01-11 10:02:00,36.0,21.0,-100.00,West,271,3.0,8.0,53,-99.99,,,-99.99,,2013-01-11 18:02:00,
2013-01-11 10:12:00,36.0,16.0,-100.00,West,277,5.0,13.0,44,-99.99,,,-99.99,,2013-01-11 18:12:00,
2013-01-11 10:23:00,37.0,16.0,-100.00,NW,317,5.0,13.0,42,-99.99,,,-99.99,,2013-01-11 18:23:00,
2013-01-11 10:32:00,37.0,16.0,-100.00,NW,317,8.0,17.0,41,-99.99,,,-99.99,,2013-01-11 18:32:00,
2013-01-11 10:42:00,37.0,15.0,-100.00,NW,309,8.0,14.0,40,-99.99,,,-99.99,,2013-01-11 18:42:00,
2013-01-11 10:53:00,37.0,14.0,-100.00,WNW,295,7.0,15.0,38,-99.99,,,-99.99,,2013-01-11 18:53:00,
2013-01-11 11:02:00,38.0,14.0,-100.00,NW,304,7.0,16.0,37,-99.99,,,-99.99,,2013-01-11 19:02:00,
2013-01-11 11:12:00,38.0,13.0,-100.00,WNW,289,7.0,14.0,36,-99.99,,,-99.99,,2013-01-11 19:12:00,
2013-01-11 11:22:00,38.0,12.0,-100.00,WNW,300,10.0,18.0,34,-99.99,,,-99.99,,2013-01-11 19:22:00,
2013-01-11 11:32:00,38.0,11.0,-100.00,NW,306,9.0,16.0,33,-99.99,,,-99.99,,2013-01-11 19:32:00,
2013-01-11 11:42:00,39.0,14.0,-100.00,NW,307,9.0,14.0,35,-99.99,,,-99.99,,2013-01-11 19:42:00,
2013-01-11 11:52:00,39.0,13.0,-100.00,NW,310,10.0,16.0,34,-99.99,,,-99.99,,2013-01-11 19:52:00,
2013-01-11 12:02:00,39.0,14.0,-100.00,NW,315,10.0,16.0,35,-99.99,,,-99.99,,2013-01-11 20:02:00,
2013-01-11 12:12:00,39.0,14.0,-100.00,NW,322,7.0,16.0,36,-99.99,,,-99.99,,2013-01-11 20:12:00,
2013-01-11 12:22:00,40.0,15.0,-100.00,NW,320,6.0,15.0,35,-99.99,,,-99.99,,2013-01-11 20:22:00,
2013-01-11 12:32:00,40.0,15.0,-100.00,WNW,302,6.0,15.0,35,-99.99,,,-99.99,,2013-01-11 20:32:00,
2013-01-11 12:43:00,40.0,14.0,-100.00,SW,225,9.0,16.0,34,-99.99,,,-99.99,,2013-01-11 20:43:00,
2013-01-11 12:52:00,40.0,13.0,-100.00,WSW,244,5.0,12.0,33,-99.99,,,-99.99,,2013-01-11 20:52:00,
2013-01-11 13:02:00,40.0,14.0,-100.00,West,270,6.0,16.0,34,-99.99,,,-99.99,,2013-01-11 21:02:00,
2013-01-11 13:12:00,40.0,15.0,-100.00,SW,236,7.0,17.0,35,-99.99,,,-99.99,,2013-01-11 21:12:00,
2013-01-11 13:22:00,40.0,14.0,-100.00,WSW,257,6.0,17.0,34,-99.99,,,-99.99,,2013-01-11 21:22:00,
2013-01-11 13:32:00,40.0,14.0,-100.00,SW,219,8.0,19.0,34,-99.99,,,-99.99,,2013-01-11 21:32:00,
2013-01-11 13:42:00,40.0,14.0,-100.00,NW,311,6.0,14.0,34,-99.99,,,-99.99,,2013-01-11 21:42:00,
2013-01-11 13:52:00,39.0,12.0,-100.00,WSW,249,7.0,17.0,32,-99.99,,,-99.99,,2013-01-11 21:52:00,
2013-01-11 14:02:00,39.0,12.0,-100.00,NW,315,9.0,18.0,32,-99.99,,,-99.99,,2013-01-11 22:02:00,
2013-01-11 14:12:00,40.0,14.0,-100.00,WNW,296,6.0,17.0,34,-99.99,,,-99.99,,2013-01-11 22:12:00,
2013-01-11 14:22:00,40.0,15.0,-100.00,NW,308,9.0,17.0,36,-99.99,,,-99.99,,2013-01-11 22:22:00,
2013-01-11 14:32:00,40.0,16.0,-100.00,WNW,297,7.0,15.0,38,-99.99,,,-99.99,,2013-01-11 22:32:00,
2013-01-11 14:42:00,40.0,16.0,-100.00,West,259,5.0,18.0,38,-99.99,,,-99.99,,2013-01-11 22:42:00,
2013-01-11 14:52:00,40.0,16.0,-100.00,NW,312,7.0,13.0,38,-99.99,,,-99.99,,2013-01-11 22:52:00,
2013-01-11 15:02:00,40.0,16.0,-100.00,West,281,5.0,14.0,38,-99.99,,,-99.99,,2013-01-11 23:02:00,
2013-01-11 15:12:00,40.0,17.0,-100.00,WSW,241,6.0,15.0,39,-99.99,,,-99.99,,2013-01-11 23:12:00,
2013-01-11 15:22:00,40.0,16.0,-100.00,West,266,7.0,13.0,37,-99.99,,,-99.99,,2013-01-11 23:22:00,
2013-01-11 15:32:00,40.0,15.0,-100.00,West,261,6.0,14.0,36,-99.99,,,-99.99,,2013-01-11 23:32:00,
2013-01-11 15:42:00,40.0,16.0,-100.00,WNW,294,5.0,17.0,37,-99.99,,,-99.99,,2013-01-11 23:42:00,
2013-01-11 15:53:00,39.0,15.0,-100.00,NW,307,7.0,14.0,37,-99.99,,,-99.99,,2013-01-11 23:53:00,
2013-01-11 16:02:00,39.0,17.0,-100.00,WSW,255,3.0,9.0,40,-99.99,,,-99.99,,2013-01-12 00:02:00,
2013-01-11 16:12:00,39.0,17.0,-100.00,West,265,4.0,14.0,40,-99.99,,,-99.99,,2013-01-12 00:12:00,
2013-01-11 16:22:00,38.0,17.0,-100.00,West,269,4.0,11.0,42,-99.99,,,-99.99,,2013-01-12 00:22:00,
2013-01-11 16:32:00,38.0,18.0,-100.00,SW,226,5.0,11.0,44,-99.99,,,-99.99,,2013-01-12 00:32:00,
2013-01-11 16:42:00,37.0,18.0,-100.00,WSW,250,6.0,13.0,46,-99.99,,,-99.99,,2013-01-12 00:42:00,
2013-01-11 16:52:00,36.0,20.0,-100.00,WSW,251,4.0,11.0,51,-99.99,,,-99.99,,2013-01-12 00:52:00,
2013-01-11 17:02:00,36.0,20.0,-100.00,WSW,251,4.0,11.0,51,-99.99,,,-99.99,,2013-01-12 01:02:00,
2013-01-11 17:12:00,36.0,20.0,-100.00,NW,307,4.0,12.0,51,-99.99,,,-99.99,,2013-01-12 01:12:00,
2013-01-11 17:22:00,36.0,21.0,-100.00,NNW,327,6.0,12.0,53,-99.99,,,-99.99,,2013-01-12 01:22:00,
2013-01-11 17:32:00,35.0,21.0,-100.00,NNW,340,4.0,11.0,57,-99.99,,,-99.99,,2013-01-12 01:32:00,
2013-01-11 17:42:00,35.0,21.0,-100.00,NNW,340,4.0,11.0,57,-99.99,,,-99.99,,2013-01-12 01:42:00,
2013-01-11 17:52:00,35.0,22.0,-100.00,NNW,329,4.0,8.0,59,-99.99,,,-99.99,,2013-01-12 01:52:00,
2013-01-11 18:02:00,34.0,22.0,-100.00,NW,321,4.0,8.0,60,-99.99,,,-99.99,,2013-01-12 02:02:00,
2013-01-11 18:12:00,34.0,22.0,-100.00,NW,313,2.0,5.0,61,-99.99,,,-99.99,,2013-01-12 02:12:00,
2013-01-11 18:22:00,34.0,22.0,-100.00,NW,322,4.0,7.0,62,-99.99,,,-99.99,,2013-01-12 02:22:00,
2013-01-11 18:32:00,33.0,22.0,-100.00,NW,316,5.0,9.0,63,-99.99,,,-99.99,,2013-01-12 02:32:00,
2013-01-11 18:42:00,33.0,22.0,-100.00,NW,314,4.0,8.0,64,-99.99,,,-99.99,,2013-01-12 02:42:00,
2013-01-11 18:52:00,32.0,23.0,-100.00,NW,314,4.0,8.0,68,-99.99,,,-99.99,,2013-01-12 02:52:00,
2013-01-11 19:02:00,32.0,23.0,-100.00,NW,323,5.0,8.0,70,-99.99,,,-99.99,,2013-01-12 03:02:00,
2013-01-11 19:11:00,32.0,24.0,-100.00,NW,322,5.0,8.0,72,-99.99,,,-99.99,,2013-01-12 03:11:00,
2013-01-11 19:22:00,31.0,24.0,-100.00,NW,325,5.0,8.0,74,-99.99,,,-99.99,,2013-01-12 03:22:00,
2013-01-11 19:32:00,30.0,23.0,-100.00,NW,326,5.0,7.0,76,-99.99,,,-99.99,,2013-01-12 03:32:00,
2013-01-11 19:42:00,30.0,23.0,-100.00,NW,326,5.0,7.0,76,-99.99,,,-99.99,,2013-01-12 03:42:00,
2013-01-11 19:52:00,30.0,24.0,-100.00,NW,322,4.0,5.0,79,-99.99,,,-99.99,,2013-01-12 03:52:00,
2013-01-11 20:02:00,30.0,24.0,-100.00,NW,322,4.0,5.0,79,-99.99,,,-99.99,,2013-01-12 04:02:00,
2013-01-11 20:12:00,30.0,25.0,-100.00,NNW,330,3.0,5.0,80,-99.99,,,-99.99,,2013-01-12 04:12:00,
2013-01-11 20:22:00,29.0,24.0,-100.00,NW,325,4.0,6.0,81,-99.99,,,-99.99,,2013-01-12 04:22:00,
2013-01-11 20:32:00,29.0,24.0,-100.00,NW,326,4.0,5.0,81,-99.99,,,-99.99,,2013-01-12 04:32:00,
2013-01-11 20:42:00,29.0,24.0,-100.00,NW,326,4.0,5.0,81,-99.99,,,-99.99,,2013-01-12 04:42:00,
2013-01-11 20:52:00,29.0,24.0,-100.00,NW,325,3.0,5.0,82,-99.99,,,-99.99,,2013-01-12 04:52:00,
2013-01-11 21:03:00,29.0,25.0,-100.00,NNW,333,3.0,4.0,83,-99.99,,,-99.99,,2013-01-12 05:03:00,
2013-01-11 21:12:00,29.0,24.0,-100.00,WNW,300,2.0,4.0,82,-99.99,,,-99.99,,2013-01-12 05:12:00,
2013-01-11 21:22:00,26.0,22.0,-100.00,WSW,251,1.0,2.0,84,-99.99,,,-99.99,,2013-01-12 05:22:00,
2013-01-11 21:32:00,27.0,23.0,-100.00,NNW,348,2.0,4.0,86,-99.99,,,-99.99,,2013-01-12 05:32:00,
2013-01-11 21:42:00,26.0,22.0,-100.00,NNE,30,1.0,2.0,86,-99.99,,,-99.99,,2013-01-12 05:42:00,
2013-01-11 21:52:00,26.0,23.0,-100.00,North,360,1.0,1.0,87,-99.99,,,-99.99,,2013-01-12 05:52:00,
2013-01-11 22:02:00,25.0,22.0,-100.00,East,80,1.0,2.0,87,-99.99,,,-99.99,,2013-01-12 06:02:00,
2013-01-11 22:12:00,24.0,21.0,-100.00,SSW,202,1.0,1.0,88,-99.99,,,-99.99,,2013-01-12 06:12:00,
2013-01-11 22:22:00,24.0,21.0,-100.00,NNE,12,1.0,1.0,89,-99.99,,,-99.99,,2013-01-12 06:22:00,
2013-01-11 22:32:00,25.0,22.0,-100.00,North,349,1.0,2.0,89,-99.99,,,-99.99,,2013-01-12 06:32:00,
2013-01-11 22:42:00,25.0,22.0,-100.00,North,349,1.0,2.0,89,-99.99,,,-99.99,,2013-01-12 06:42:00,
2013-01-11 22:52:00,25.0,22.0,-100.00,NNE,20,1.0,1.0,88,-99.99,,,-99.99,,2013-01-12 06:52:00,
2013-01-11 23:02:00,25.0,22.0,-100.00,SW,216,1.0,1.0,88,-99.99,,,-99.99,,2013-01-12 07:02:00,
2013-01-11 23:11:00,25.0,22.0,-100.00,South,176,1.0,2.0,88,-99.99,,,-99.99,,2013-01-12 07:11:00,
2013-01-11 23:22:00,24.0,22.0,-100.00,West,272,1.0,2.0,90,-99.99,,,-99.99,,2013-01-12 07:22:00,
2013-01-11 23:32:00,25.0,23.0,-100.00,NW,307,1.0,1.0,91,-99.99,,,-99.99,,2013-01-12 07:32:00,
2013-01-11 23:42:00,25.0,23.0,-100.00,NW,307,1.0,1.0,91,-99.99,,,-99.99,,2013-01-12 07:42:00,
2013-01-11 23:52:00,26.0,24.0,-100.00,NNW,348,1.0,2.0,91,-99.99,,,-99.99,,2013-01-12 07:52:00,